< Cyclone 201820 2018 Season Cyclone 201822 >
Cyclone 201821 (Linda)
General InformationTrack Information on Google MapsDetailed Wind InformationList of All Images || ResourceGoogle EarthGE AnimationAtom FeedGeoJSON
Detalied Best Track (Time Zone = UTC)
Year Month Day Hour Lat. Long. Pressure (hPa) Wind (kt) Class Image Chart
2018 3 11 06 -9.2 160.3 994 0 0 Image --
2018 3 11 12 -10.9 160.1 994 20 2 Image --
2018 3 11 18 -11.9 160.1 994 20 2 Image --
2018 3 12 00 -12.7 160.1 994 20 2 Image --
2018 3 12 06 -14.3 159.9 994 25 2 Image --
2018 3 12 12 -15.5 160.0 994 30 2 Image --
2018 3 12 18 -16.5 160.4 994 30 2 Image --
2018 3 13 00 -17.5 159.9 994 30 2 Image --
2018 3 13 03 -18.2 159.7 994 32.5 0 Image --
2018 3 13 06 -19.2 159.5 994 35 3 Image --
2018 3 13 09 -19.6 159.4 994 35 3 Image --
2018 3 13 12 -20.2 159.0 994 40 3 Image --
2018 3 13 15 -20.8 158.6 993.5 37.5 0 Image --
2018 3 13 18 -21.4 158.2 993 35 3 Image --
2018 3 13 23 -21.6 157.0 995 35 3 Image --
2018 3 14 00 -21.8 156.9 995 0 0 Image --
2018 3 14 05 -22.4 156.5 995 0 0 Image --
2018 3 14 06 -22.4 156.4 995 0 0 Image --
2018 3 14 12 -22.7 156.1 995 0 0 Image --
2018 3 14 18 -22.9 156.1 995 0 0 Image --
2018 3 15 00 -23.6 156.2 995 0 0 Image --
2018 3 15 06 -24.4 156.5 995 0 0 Image --
2018 3 15 12 -25.1 157.0 995 0 0 Image --
2018 3 15 18 -25.7 157.5 995 0 0 Image --
2018 3 16 00 -26.5 157.8 995 0 0 Image --
2018 3 16 06 -26.7 157.7 995 0 0 Image --
< Cyclone 201820 2018 Season Cyclone 201822 >

Help